sensor_id;sensor_type;location;lat;lon;timestamp;temperature;humidity
15259;DHT22;34462;51.368;12.364;2024-02-21T00:00:24;8.70;99.90
15259;DHT22;34462;51.368;12.364;2024-02-21T00:02:52;8.70;99.90
15259;DHT22;34462;51.368;12.364;2024-02-21T00:05:23;8.80;99.90
15259;DHT22;34462;51.368;12.364;2024-02-21T00:07:53;8.70;99.90
15259;DHT22;34462;51.368;12.364;2024-02-21T00:10:21;8.70;99.90
15259;DHT22;34462;51.368;12.364;2024-02-21T00:12:51;8.70;99.90
15259;DHT22;34462;51.368;12.364;2024-02-21T00:15:19;8.70;99.90
15259;DHT22;34462;51.368;12.364;2024-02-21T00:17:47;8.70;99.90
15259;DHT22;34462;51.368;12.364;2024-02-21T00:20:20;8.70;99.90
15259;DHT22;34462;51.368;12.364;2024-02-21T00:22:53;8.60;99.90
15259;DHT22;34462;51.368;12.364;2024-02-21T00:25:22;8.60;99.90
15259;DHT22;34462;51.368;12.364;2024-02-21T00:27:53;8.60;99.90
15259;DHT22;34462;51.368;12.364;2024-02-21T00:30:22;8.50;99.90
15259;DHT22;34462;51.368;12.364;2024-02-21T00:32:50;8.50;99.90
15259;DHT22;34462;51.368;12.364;2024-02-21T00:35:18;8.50;99.90
15259;DHT22;34462;51.368;12.364;2024-02-21T00:37:46;8.60;99.90
15259;DHT22;34462;51.368;12.364;2024-02-21T00:40:17;8.50;99.90
15259;DHT22;34462;51.368;12.364;2024-02-21T00:42:47;8.50;99.90
15259;DHT22;34462;51.368;12.364;2024-02-21T00:45:20;8.50;99.90
15259;DHT22;34462;51.368;12.364;2024-02-21T00:47:48;8.50;99.90
15259;DHT22;34462;51.368;12.364;2024-02-21T00:50:16;8.50;99.90
15259;DHT22;34462;51.368;12.364;2024-02-21T00:52:44;8.50;99.90
15259;DHT22;34462;51.368;12.364;2024-02-21T00:55:13;8.50;99.90
15259;DHT22;34462;51.368;12.364;2024-02-21T00:57:43;8.50;99.90
15259;DHT22;34462;51.368;12.364;2024-02-21T01:00:12;8.60;99.90
15259;DHT22;34462;51.368;12.364;2024-02-21T01:02:41;8.50;99.90
15259;DHT22;34462;51.368;12.364;2024-02-21T01:05:12;8.50;99.90
15259;DHT22;34462;51.368;12.364;2024-02-21T01:07:40;8.50;99.90
15259;DHT22;34462;51.368;12.364;2024-02-21T01:10:13;8.50;99.90
15259;DHT22;34462;51.368;12.364;2024-02-21T01:12:42;8.50;99.90
15259;DHT22;34462;51.368;12.364;2024-02-21T01:15:11;8.50;99.90
15259;DHT22;34462;51.368;12.364;2024-02-21T01:17:39;8.60;99.90
15259;DHT22;34462;51.368;12.364;2024-02-21T01:20:12;8.60;99.90
15259;DHT22;34462;51.368;12.364;2024-02-21T01:22:41;8.50;99.90
15259;DHT22;34462;51.368;12.364;2024-02-21T01:25:13;8.50;99.90
15259;DHT22;34462;51.368;12.364;2024-02-21T01:27:43;8.50;99.90
15259;DHT22;34462;51.368;12.364;2024-02-21T01:30:13;8.50;99.90
15259;DHT22;34462;51.368;12.364;2024-02-21T01:32:41;8.50;99.90
15259;DHT22;34462;51.368;12.364;2024-02-21T01:35:10;8.50;99.90
15259;DHT22;34462;51.368;12.364;2024-02-21T01:37:38;8.50;99.90
15259;DHT22;34462;51.368;12.364;2024-02-21T01:40:08;8.50;99.90
15259;DHT22;34462;51.368;12.364;2024-02-21T01:42:42;8.50;99.90
15259;DHT22;34462;51.368;12.364;2024-02-21T01:45:13;8.50;99.90
15259;DHT22;34462;51.368;12.364;2024-02-21T01:47:45;8.50;99.90
15259;DHT22;34462;51.368;12.364;2024-02-21T01:50:15;8.50;99.90
15259;DHT22;34462;51.368;12.364;2024-02-21T01:52:46;8.50;99.90
15259;DHT22;34462;51.368;12.364;2024-02-21T01:55:20;8.50;99.90
15259;DHT22;34462;51.368;12.364;2024-02-21T01:57:53;8.50;99.90
15259;DHT22;34462;51.368;12.364;2024-02-21T02:00:22;8.50;99.90
15259;DHT22;34462;51.368;12.364;2024-02-21T02:02:53;8.50;99.90
15259;DHT22;34462;51.368;12.364;2024-02-21T02:05:22;8.60;99.90
15259;DHT22;34462;51.368;12.364;2024-02-21T02:07:53;8.60;99.90
15259;DHT22;34462;51.368;12.364;2024-02-21T02:10:22;8.60;99.90
15259;DHT22;34462;51.368;12.364;2024-02-21T02:12:53;8.60;99.90
15259;DHT22;34462;51.368;12.364;2024-02-21T02:15:22;8.60;99.90
15259;DHT22;34462;51.368;12.364;2024-02-21T02:17:50;8.60;99.90
15259;DHT22;34462;51.368;12.364;2024-02-21T02:20:18;8.60;99.90
15259;DHT22;34462;51.368;12.364;2024-02-21T02:22:47;8.60;99.90
15259;DHT22;34462;51.368;12.364;2024-02-21T02:25:19;8.60;99.90
15259;DHT22;34462;51.368;12.364;2024-02-21T02:27:47;8.60;99.90
15259;DHT22;34462;51.368;12.364;2024-02-21T02:30:15;8.50;99.90
15259;DHT22;34462;51.368;12.364;2024-02-21T02:32:44;8.60;99.90
15259;DHT22;34462;51.368;12.364;2024-02-21T02:35:14;8.50;99.90
15259;DHT22;34462;51.368;12.364;2024-02-21T02:37:48;8.50;99.90
15259;DHT22;34462;51.368;12.364;2024-02-21T02:40:23;8.50;99.90
15259;DHT22;34462;51.368;12.364;2024-02-21T02:42:51;8.60;99.90
15259;DHT22;34462;51.368;12.364;2024-02-21T02:45:22;8.50;99.90
15259;DHT22;34462;51.368;12.364;2024-02-21T02:47:53;8.50;99.90
15259;DHT22;34462;51.368;12.364;2024-02-21T02:50:24;8.50;99.90
15259;DHT22;34462;51.368;12.364;2024-02-21T02:52:52;8.50;99.90
15259;DHT22;34462;51.368;12.364;2024-02-21T02:55:23;8.50;99.90
15259;DHT22;34462;51.368;12.364;2024-02-21T02:57:52;8.50;99.90
15259;DHT22;34462;51.368;12.364;2024-02-21T03:00:20;8.50;99.90
15259;DHT22;34462;51.368;12.364;2024-02-21T03:02:50;8.50;99.90
15259;DHT22;34462;51.368;12.364;2024-02-21T03:05:20;8.50;99.90
15259;DHT22;34462;51.368;12.364;2024-02-21T03:07:49;8.50;99.90
15259;DHT22;34462;51.368;12.364;2024-02-21T03:10:18;8.50;99.90
15259;DHT22;34462;51.368;12.364;2024-02-21T03:12:48;8.50;99.90
15259;DHT22;34462;51.368;12.364;2024-02-21T03:15:16;8.60;99.90
15259;DHT22;34462;51.368;12.364;2024-02-21T03:17:44;8.60;99.90
15259;DHT22;34462;51.368;12.364;2024-02-21T03:20:14;8.60;99.90
15259;DHT22;34462;51.368;12.364;2024-02-21T03:22:42;8.60;99.90
15259;DHT22;34462;51.368;12.364;2024-02-21T03:25:13;8.60;99.90
15259;DHT22;34462;51.368;12.364;2024-02-21T03:27:42;8.60;99.90
15259;DHT22;34462;51.368;12.364;2024-02-21T03:30:13;8.60;99.90
15259;DHT22;34462;51.368;12.364;2024-02-21T03:32:41;8.50;99.90
15259;DHT22;34462;51.368;12.364;2024-02-21T03:35:13;8.50;99.90
15259;DHT22;34462;51.368;12.364;2024-02-21T03:37:42;8.50;99.90
15259;DHT22;34462;51.368;12.364;2024-02-21T03:40:10;8.60;99.90
15259;DHT22;34462;51.368;12.364;2024-02-21T03:42:39;8.50;99.90
15259;DHT22;34462;51.368;12.364;2024-02-21T03:45:08;8.50;99.90
15259;DHT22;34462;51.368;12.364;2024-02-21T03:47:42;8.50;99.90
15259;DHT22;34462;51.368;12.364;2024-02-21T03:50:10;8.60;99.90
15259;DHT22;34462;51.368;12.364;2024-02-21T03:52:38;8.60;99.90
15259;DHT22;34462;51.368;12.364;2024-02-21T03:55:07;8.60;99.90
15259;DHT22;34462;51.368;12.364;2024-02-21T03:57:40;8.50;99.90
15259;DHT22;34462;51.368;12.364;2024-02-21T04:00:13;8.50;99.90
15259;DHT22;34462;51.368;12.364;2024-02-21T04:02:42;8.50;99.90
15259;DHT22;34462;51.368;12.364;2024-02-21T04:05:10;8.50;99.90
15259;DHT22;34462;51.368;12.364;2024-02-21T04:07:39;8.50;99.90
15259;DHT22;34462;51.368;12.364;2024-02-21T04:10:08;8.50;99.90
15259;DHT22;34462;51.368;12.364;2024-02-21T04:12:38;8.60;99.90
15259;DHT22;34462;51.368;12.364;2024-02-21T04:15:06;8.60;99.90
15259;DHT22;34462;51.368;12.364;2024-02-21T04:17:41;8.50;99.90
15259;DHT22;34462;51.368;12.364;2024-02-21T04:20:14;8.60;99.90
15259;DHT22;34462;51.368;12.364;2024-02-21T04:22:44;8.50;99.90
15259;DHT22;34462;51.368;12.364;2024-02-21T04:25:13;8.50;99.90
15259;DHT22;34462;51.368;12.364;2024-02-21T04:27:41;8.50;99.90
15259;DHT22;34462;51.368;12.364;2024-02-21T04:30:13;8.50;99.90
15259;DHT22;34462;51.368;12.364;2024-02-21T04:32:43;8.50;99.90
15259;DHT22;34462;51.368;12.364;2024-02-21T04:35:12;8.60;99.90
15259;DHT22;34462;51.368;12.364;2024-02-21T04:37:41;8.60;99.90
15259;DHT22;34462;51.368;12.364;2024-02-21T04:40:10;8.50;99.90
15259;DHT22;34462;51.368;12.364;2024-02-21T04:42:39;8.60;99.90
15259;DHT22;34462;51.368;12.364;2024-02-21T04:45:09;8.60;99.90
15259;DHT22;34462;51.368;12.364;2024-02-21T04:47:39;8.50;99.90
15259;DHT22;34462;51.368;12.364;2024-02-21T04:50:09;8.50;99.90
15259;DHT22;34462;51.368;12.364;2024-02-21T04:52:37;8.50;99.90
15259;DHT22;34462;51.368;12.364;2024-02-21T04:55:06;8.50;99.90
15259;DHT22;34462;51.368;12.364;2024-02-21T04:57:34;8.40;99.90
15259;DHT22;34462;51.368;12.364;2024-02-21T05:00:03;8.50;99.90
15259;DHT22;34462;51.368;12.364;2024-02-21T05:02:33;8.50;99.90
15259;DHT22;34462;51.368;12.364;2024-02-21T05:05:01;8.50;99.90
15259;DHT22;34462;51.368;12.364;2024-02-21T05:07:34;8.50;99.90
15259;DHT22;34462;51.368;12.364;2024-02-21T05:10:03;8.50;99.90
15259;DHT22;34462;51.368;12.364;2024-02-21T05:12:34;8.50;99.90
15259;DHT22;34462;51.368;12.364;2024-02-21T05:15:02;8.30;99.90
15259;DHT22;34462;51.368;12.364;2024-02-21T05:17:30;8.60;99.90
15259;DHT22;34462;51.368;12.364;2024-02-21T05:19:59;8.60;99.90
15259;DHT22;34462;51.368;12.364;2024-02-21T05:22:27;8.50;99.90
15259;DHT22;34462;51.368;12.364;2024-02-21T05:25:03;8.60;99.90
15259;DHT22;34462;51.368;12.364;2024-02-21T05:27:34;8.50;99.90
15259;DHT22;34462;51.368;12.364;2024-02-21T05:30:04;8.50;99.90
15259;DHT22;34462;51.368;12.364;2024-02-21T05:32:34;8.50;99.90
15259;DHT22;34462;51.368;12.364;2024-02-21T05:35:03;8.60;99.90
15259;DHT22;34462;51.368;12.364;2024-02-21T05:37:31;8.50;99.90
15259;DHT22;34462;51.368;12.364;2024-02-21T05:40:00;8.50;99.90
15259;DHT22;34462;51.368;12.364;2024-02-21T05:42:30;8.60;99.90
15259;DHT22;34462;51.368;12.364;2024-02-21T05:44:58;8.60;99.90
15259;DHT22;34462;51.368;12.364;2024-02-21T05:47:27;8.60;99.90
15259;DHT22;34462;51.368;12.364;2024-02-21T05:49:56;8.60;99.90
15259;DHT22;34462;51.368;12.364;2024-02-21T05:52:25;8.60;99.90
15259;DHT22;34462;51.368;12.364;2024-02-21T05:54:54;8.60;99.90
15259;DHT22;34462;51.368;12.364;2024-02-21T05:57:22;8.60;99.90
15259;DHT22;34462;51.368;12.364;2024-02-21T05:59:52;8.60;99.90
15259;DHT22;34462;51.368;12.364;2024-02-21T06:02:20;8.50;99.90
15259;DHT22;34462;51.368;12.364;2024-02-21T06:04:49;8.50;99.90
15259;DHT22;34462;51.368;12.364;2024-02-21T06:07:17;8.50;99.90
15259;DHT22;34462;51.368;12.364;2024-02-21T06:09:46;8.60;99.90
15259;DHT22;34462;51.368;12.364;2024-02-21T06:12:14;8.50;99.90
15259;DHT22;34462;51.368;12.364;2024-02-21T06:14:42;8.50;99.90
15259;DHT22;34462;51.368;12.364;2024-02-21T06:17:12;8.50;99.90
15259;DHT22;34462;51.368;12.364;2024-02-21T06:19:40;8.30;99.90
15259;DHT22;34462;51.368;12.364;2024-02-21T06:22:12;8.20;99.90
15259;DHT22;34462;51.368;12.364;2024-02-21T06:24:40;8.30;99.90
15259;DHT22;34462;51.368;12.364;2024-02-21T06:27:08;8.20;99.90
15259;DHT22;34462;51.368;12.364;2024-02-21T06:29:38;8.20;99.90
15259;DHT22;34462;51.368;12.364;2024-02-21T06:32:06;8.20;99.90
15259;DHT22;34462;51.368;12.364;2024-02-21T06:34:35;8.20;99.90
15259;DHT22;34462;51.368;12.364;2024-02-21T06:37:04;8.10;99.90
15259;DHT22;34462;51.368;12.364;2024-02-21T06:39:34;8.20;99.90
15259;DHT22;34462;51.368;12.364;2024-02-21T06:42:04;8.30;99.90
15259;DHT22;34462;51.368;12.364;2024-02-21T06:44:32;8.30;99.90
15259;DHT22;34462;51.368;12.364;2024-02-21T06:47:03;8.30;99.90
15259;DHT22;34462;51.368;12.364;2024-02-21T06:49:31;8.30;99.90
15259;DHT22;34462;51.368;12.364;2024-02-21T06:52:01;8.40;99.90
15259;DHT22;34462;51.368;12.364;2024-02-21T06:54:33;8.40;99.90
15259;DHT22;34462;51.368;12.364;2024-02-21T06:57:01;8.40;99.90
15259;DHT22;34462;51.368;12.364;2024-02-21T06:59:30;8.40;99.90
15259;DHT22;34462;51.368;12.364;2024-02-21T07:01:58;8.40;99.90
15259;DHT22;34462;51.368;12.364;2024-02-21T07:04:27;8.40;99.90
15259;DHT22;34462;51.368;12.364;2024-02-21T07:06:57;8.40;99.90
15259;DHT22;34462;51.368;12.364;2024-02-21T07:09:26;8.50;99.90
15259;DHT22;34462;51.368;12.364;2024-02-21T07:11:56;8.60;99.90
15259;DHT22;34462;51.368;12.364;2024-02-21T07:14:25;8.60;99.90
15259;DHT22;34462;51.368;12.364;2024-02-21T07:16:53;8.60;99.90
15259;DHT22;34462;51.368;12.364;2024-02-21T07:19:21;8.70;99.90
15259;DHT22;34462;51.368;12.364;2024-02-21T07:21:50;8.70;99.90
15259;DHT22;34462;51.368;12.364;2024-02-21T07:24:19;8.70;99.90
15259;DHT22;34462;51.368;12.364;2024-02-21T07:26:49;8.70;99.90
15259;DHT22;34462;51.368;12.364;2024-02-21T07:29:17;8.80;99.90
15259;DHT22;34462;51.368;12.364;2024-02-21T07:31:46;8.80;99.90
15259;DHT22;34462;51.368;12.364;2024-02-21T07:34:16;8.90;99.90
15259;DHT22;34462;51.368;12.364;2024-02-21T07:36:44;8.90;99.90
15259;DHT22;34462;51.368;12.364;2024-02-21T07:39:12;8.90;99.90
15259;DHT22;34462;51.368;12.364;2024-02-21T07:41:41;8.90;99.90
15259;DHT22;34462;51.368;12.364;2024-02-21T07:44:13;8.90;99.90
15259;DHT22;34462;51.368;12.364;2024-02-21T07:46:41;8.90;99.90
15259;DHT22;34462;51.368;12.364;2024-02-21T07:49:09;9.00;99.90
15259;DHT22;34462;51.368;12.364;2024-02-21T07:51:37;9.00;99.90
15259;DHT22;34462;51.368;12.364;2024-02-21T07:54:05;9.00;99.90
15259;DHT22;34462;51.368;12.364;2024-02-21T07:56:37;9.00;99.90
15259;DHT22;34462;51.368;12.364;2024-02-21T07:59:05;9.10;99.90
15259;DHT22;34462;51.368;12.364;2024-02-21T08:01:36;9.20;99.90
15259;DHT22;34462;51.368;12.364;2024-02-21T08:04:04;9.20;99.90
15259;DHT22;34462;51.368;12.364;2024-02-21T08:06:32;9.30;99.90
15259;DHT22;34462;51.368;12.364;2024-02-21T08:09:00;9.30;99.90
15259;DHT22;34462;51.368;12.364;2024-02-21T08:11:30;9.40;99.90
15259;DHT22;34462;51.368;12.364;2024-02-21T08:13:59;9.40;99.90
15259;DHT22;34462;51.368;12.364;2024-02-21T08:16:27;9.40;99.90
15259;DHT22;34462;51.368;12.364;2024-02-21T08:18:57;9.50;99.90
15259;DHT22;34462;51.368;12.364;2024-02-21T08:21:26;9.60;99.90
15259;DHT22;34462;51.368;12.364;2024-02-21T08:23:55;9.70;99.90
15259;DHT22;34462;51.368;12.364;2024-02-21T08:26:23;9.90;99.90
15259;DHT22;34462;51.368;12.364;2024-02-21T08:28:54;10.00;99.90
15259;DHT22;34462;51.368;12.364;2024-02-21T08:31:22;10.10;99.90
15259;DHT22;34462;51.368;12.364;2024-02-21T08:33:51;10.20;99.90
15259;DHT22;34462;51.368;12.364;2024-02-21T08:36:21;10.30;99.90
15259;DHT22;34462;51.368;12.364;2024-02-21T08:38:51;10.30;99.90
15259;DHT22;34462;51.368;12.364;2024-02-21T08:41:19;10.20;99.90
15259;DHT22;34462;51.368;12.364;2024-02-21T08:43:56;10.00;99.90
15259;DHT22;34462;51.368;12.364;2024-02-21T08:46:24;10.00;99.90
15259;DHT22;34462;51.368;12.364;2024-02-21T08:48:54;9.90;99.90
15259;DHT22;34462;51.368;12.364;2024-02-21T08:51:24;9.80;99.90
15259;DHT22;34462;51.368;12.364;2024-02-21T08:53:53;9.80;99.90
15259;DHT22;34462;51.368;12.364;2024-02-21T08:56:22;9.70;99.90
15259;DHT22;34462;51.368;12.364;2024-02-21T08:58:50;9.60;99.90
15259;DHT22;34462;51.368;12.364;2024-02-21T09:01:18;9.70;99.90
15259;DHT22;34462;51.368;12.364;2024-02-21T09:03:47;9.70;99.90
15259;DHT22;34462;51.368;12.364;2024-02-21T09:06:20;9.70;99.90
15259;DHT22;34462;51.368;12.364;2024-02-21T09:08:50;9.60;99.90
15259;DHT22;34462;51.368;12.364;2024-02-21T09:11:18;9.50;99.90
15259;DHT22;34462;51.368;12.364;2024-02-21T09:13:46;9.60;99.90
15259;DHT22;34462;51.368;12.364;2024-02-21T09:16:15;9.60;99.90
15259;DHT22;34462;51.368;12.364;2024-02-21T09:18:43;9.60;99.90
15259;DHT22;34462;51.368;12.364;2024-02-21T09:21:11;9.50;99.90
15259;DHT22;34462;51.368;12.364;2024-02-21T09:23:39;9.60;99.90
15259;DHT22;34462;51.368;12.364;2024-02-21T09:26:10;9.70;99.90
15259;DHT22;34462;51.368;12.364;2024-02-21T09:28:40;9.70;99.90
15259;DHT22;34462;51.368;12.364;2024-02-21T09:31:09;9.90;99.90
15259;DHT22;34462;51.368;12.364;2024-02-21T09:33:37;10.00;99.90
15259;DHT22;34462;51.368;12.364;2024-02-21T09:36:06;10.20;99.90
15259;DHT22;34462;51.368;12.364;2024-02-21T09:38:34;10.20;99.90
15259;DHT22;34462;51.368;12.364;2024-02-21T09:41:11;10.30;99.90
15259;DHT22;34462;51.368;12.364;2024-02-21T09:43:50;10.30;99.90
15259;DHT22;34462;51.368;12.364;2024-02-21T09:46:24;10.40;99.90
15259;DHT22;34462;51.368;12.364;2024-02-21T09:49:11;10.30;99.90
15259;DHT22;34462;51.368;12.364;2024-02-21T09:51:50;10.30;99.90
15259;DHT22;34462;51.368;12.364;2024-02-21T09:54:22;10.20;99.90
15259;DHT22;34462;51.368;12.364;2024-02-21T09:56:51;10.10;99.90
15259;DHT22;34462;51.368;12.364;2024-02-21T09:59:20;10.20;99.90
15259;DHT22;34462;51.368;12.364;2024-02-21T10:01:49;10.20;99.90
15259;DHT22;34462;51.368;12.364;2024-02-21T10:04:18;10.20;99.90
15259;DHT22;34462;51.368;12.364;2024-02-21T10:06:47;10.30;99.90
15259;DHT22;34462;51.368;12.364;2024-02-21T10:09:22;10.40;99.90
15259;DHT22;34462;51.368;12.364;2024-02-21T10:11:52;10.60;99.90
15259;DHT22;34462;51.368;12.364;2024-02-21T10:14:20;10.70;99.90
15259;DHT22;34462;51.368;12.364;2024-02-21T10:16:57;10.70;99.90
15259;DHT22;34462;51.368;12.364;2024-02-21T10:19:26;10.90;99.90
15259;DHT22;34462;51.368;12.364;2024-02-21T10:22:00;10.90;99.90
15259;DHT22;34462;51.368;12.364;2024-02-21T10:24:30;11.00;99.90
15259;DHT22;34462;51.368;12.364;2024-02-21T10:27:03;11.00;99.90
15259;DHT22;34462;51.368;12.364;2024-02-21T10:29:35;10.90;99.90
15259;DHT22;34462;51.368;12.364;2024-02-21T10:32:05;11.00;99.90
15259;DHT22;34462;51.368;12.364;2024-02-21T10:34:35;11.00;99.90
15259;DHT22;34462;51.368;12.364;2024-02-21T10:37:05;11.10;99.90
15259;DHT22;34462;51.368;12.364;2024-02-21T10:39:34;11.10;99.90
15259;DHT22;34462;51.368;12.364;2024-02-21T10:42:07;11.20;99.90
15259;DHT22;34462;51.368;12.364;2024-02-21T10:44:40;11.30;99.90
15259;DHT22;34462;51.368;12.364;2024-02-21T10:47:10;11.30;99.90
15259;DHT22;34462;51.368;12.364;2024-02-21T10:49:41;11.20;99.90
15259;DHT22;34462;51.368;12.364;2024-02-21T10:52:17;11.30;99.90
15259;DHT22;34462;51.368;12.364;2024-02-21T10:54:58;11.30;99.90
15259;DHT22;34462;51.368;12.364;2024-02-21T10:57:34;11.30;99.90
15259;DHT22;34462;51.368;12.364;2024-02-21T11:00:06;11.30;99.90
15259;DHT22;34462;51.368;12.364;2024-02-21T11:02:39;11.20;99.90
15259;DHT22;34462;51.368;12.364;2024-02-21T11:05:09;11.10;99.90
15259;DHT22;34462;51.368;12.364;2024-02-21T11:07:38;11.10;99.90
15259;DHT22;34462;51.368;12.364;2024-02-21T11:10:20;11.10;99.90
15259;DHT22;34462;51.368;12.364;2024-02-21T11:12:54;11.10;99.90
15259;DHT22;34462;51.368;12.364;2024-02-21T11:15:34;11.00;99.90
15259;DHT22;34462;51.368;12.364;2024-02-21T11:18:03;11.00;99.90
15259;DHT22;34462;51.368;12.364;2024-02-21T11:20:35;11.00;99.90
15259;DHT22;34462;51.368;12.364;2024-02-21T11:23:05;11.10;99.90
15259;DHT22;34462;51.368;12.364;2024-02-21T11:25:34;11.10;99.90
15259;DHT22;34462;51.368;12.364;2024-02-21T11:28:04;11.20;99.90
15259;DHT22;34462;51.368;12.364;2024-02-21T11:30:35;11.20;99.90
15259;DHT22;34462;51.368;12.364;2024-02-21T11:33:06;11.30;99.90
15259;DHT22;34462;51.368;12.364;2024-02-21T11:35:35;11.40;99.90
15259;DHT22;34462;51.368;12.364;2024-02-21T11:38:08;11.40;99.90
15259;DHT22;34462;51.368;12.364;2024-02-21T11:40:43;11.30;99.90
15259;DHT22;34462;51.368;12.364;2024-02-21T11:43:15;11.30;99.90
15259;DHT22;34462;51.368;12.364;2024-02-21T11:45:44;11.30;99.90
15259;DHT22;34462;51.368;12.364;2024-02-21T11:48:12;11.40;99.90
15259;DHT22;34462;51.368;12.364;2024-02-21T11:50:41;11.50;99.90
15259;DHT22;34462;51.368;12.364;2024-02-21T11:53:10;11.60;99.90
15259;DHT22;34462;51.368;12.364;2024-02-21T11:55:38;11.60;99.90
15259;DHT22;34462;51.368;12.364;2024-02-21T11:58:06;11.70;99.90
15259;DHT22;34462;51.368;12.364;2024-02-21T12:00:36;11.60;99.90
15259;DHT22;34462;51.368;12.364;2024-02-21T12:03:04;11.60;99.90
15259;DHT22;34462;51.368;12.364;2024-02-21T12:05:33;11.60;99.90
15259;DHT22;34462;51.368;12.364;2024-02-21T12:08:03;11.60;99.90
15259;DHT22;34462;51.368;12.364;2024-02-21T12:10:32;11.70;99.90
15259;DHT22;34462;51.368;12.364;2024-02-21T12:13:07;11.70;99.90
15259;DHT22;34462;51.368;12.364;2024-02-21T12:15:38;11.80;99.90
15259;DHT22;34462;51.368;12.364;2024-02-21T12:18:08;11.70;99.90
15259;DHT22;34462;51.368;12.364;2024-02-21T12:20:38;11.80;99.90
15259;DHT22;34462;51.368;12.364;2024-02-21T12:23:09;11.80;99.90
15259;DHT22;34462;51.368;12.364;2024-02-21T12:25:39;11.80;99.90
15259;DHT22;34462;51.368;12.364;2024-02-21T12:28:07;11.90;99.90
15259;DHT22;34462;51.368;12.364;2024-02-21T12:30:38;11.90;99.90
15259;DHT22;34462;51.368;12.364;2024-02-21T12:33:07;11.90;99.90
15259;DHT22;34462;51.368;12.364;2024-02-21T12:35:35;11.80;99.90
15259;DHT22;34462;51.368;12.364;2024-02-21T12:38:04;11.70;99.90
15259;DHT22;34462;51.368;12.364;2024-02-21T12:40:32;11.60;99.90
15259;DHT22;34462;51.368;12.364;2024-02-21T12:43:00;11.70;99.90
15259;DHT22;34462;51.368;12.364;2024-02-21T12:45:30;11.70;99.90
15259;DHT22;34462;51.368;12.364;2024-02-21T12:47:59;11.90;99.90
15259;DHT22;34462;51.368;12.364;2024-02-21T12:50:29;11.90;99.90
15259;DHT22;34462;51.368;12.364;2024-02-21T12:52:58;11.80;99.90
15259;DHT22;34462;51.368;12.364;2024-02-21T12:55:26;11.70;99.90
15259;DHT22;34462;51.368;12.364;2024-02-21T12:57:54;11.50;99.90
15259;DHT22;34462;51.368;12.364;2024-02-21T13:00:23;11.50;99.90
15259;DHT22;34462;51.368;12.364;2024-02-21T13:02:54;11.40;99.90
15259;DHT22;34462;51.368;12.364;2024-02-21T13:05:24;11.50;99.90
15259;DHT22;34462;51.368;12.364;2024-02-21T13:07:52;11.40;99.90
15259;DHT22;34462;51.368;12.364;2024-02-21T13:10:21;11.40;99.90
15259;DHT22;34462;51.368;12.364;2024-02-21T13:12:49;11.40;99.90
15259;DHT22;34462;51.368;12.364;2024-02-21T13:15:18;11.60;99.90
15259;DHT22;34462;51.368;12.364;2024-02-21T13:17:48;11.60;99.90
15259;DHT22;34462;51.368;12.364;2024-02-21T13:20:16;11.80;99.90
15259;DHT22;34462;51.368;12.364;2024-02-21T13:22:46;12.10;99.90
15259;DHT22;34462;51.368;12.364;2024-02-21T13:25:15;12.30;99.90
15259;DHT22;34462;51.368;12.364;2024-02-21T13:27:46;12.50;99.90
15259;DHT22;34462;51.368;12.364;2024-02-21T13:30:15;12.70;99.90
15259;DHT22;34462;51.368;12.364;2024-02-21T13:32:44;12.80;99.90
15259;DHT22;34462;51.368;12.364;2024-02-21T13:35:14;12.80;99.90
15259;DHT22;34462;51.368;12.364;2024-02-21T13:37:43;12.70;99.90
15259;DHT22;34462;51.368;12.364;2024-02-21T13:40:13;12.60;99.90
15259;DHT22;34462;51.368;12.364;2024-02-21T13:42:41;12.50;99.90
15259;DHT22;34462;51.368;12.364;2024-02-21T13:45:10;12.50;99.90
15259;DHT22;34462;51.368;12.364;2024-02-21T13:47:38;12.40;99.90
15259;DHT22;34462;51.368;12.364;2024-02-21T13:50:07;12.50;99.90
15259;DHT22;34462;51.368;12.364;2024-02-21T13:52:37;12.40;99.90
15259;DHT22;34462;51.368;12.364;2024-02-21T13:55:06;12.30;99.90
15259;DHT22;34462;51.368;12.364;2024-02-21T13:57:36;12.20;99.90
15259;DHT22;34462;51.368;12.364;2024-02-21T14:00:05;12.20;99.90
15259;DHT22;34462;51.368;12.364;2024-02-21T14:02:37;12.10;99.90
15259;DHT22;34462;51.368;12.364;2024-02-21T14:05:07;12.10;99.90
15259;DHT22;34462;51.368;12.364;2024-02-21T14:07:36;12.10;99.90
15259;DHT22;34462;51.368;12.364;2024-02-21T14:10:05;12.10;99.90
15259;DHT22;34462;51.368;12.364;2024-02-21T14:12:38;12.20;99.90
15259;DHT22;34462;51.368;12.364;2024-02-21T14:15:07;12.10;99.90
15259;DHT22;34462;51.368;12.364;2024-02-21T14:17:36;12.10;99.90
15259;DHT22;34462;51.368;12.364;2024-02-21T14:20:07;12.10;99.90
15259;DHT22;34462;51.368;12.364;2024-02-21T14:22:38;12.10;99.90
15259;DHT22;34462;51.368;12.364;2024-02-21T14:25:07;12.10;99.90
15259;DHT22;34462;51.368;12.364;2024-02-21T14:27:36;12.00;99.90
15259;DHT22;34462;51.368;12.364;2024-02-21T14:30:06;11.90;99.90
15259;DHT22;34462;51.368;12.364;2024-02-21T14:32:37;11.80;99.90
15259;DHT22;34462;51.368;12.364;2024-02-21T14:35:06;11.70;99.90
15259;DHT22;34462;51.368;12.364;2024-02-21T14:37:35;11.70;99.90
15259;DHT22;34462;51.368;12.364;2024-02-21T14:40:04;11.60;99.90
15259;DHT22;34462;51.368;12.364;2024-02-21T14:42:33;11.50;99.90
15259;DHT22;34462;51.368;12.364;2024-02-21T14:45:04;11.50;99.90
15259;DHT22;34462;51.368;12.364;2024-02-21T14:47:33;11.40;99.90
15259;DHT22;34462;51.368;12.364;2024-02-21T14:50:03;11.60;99.90
15259;DHT22;34462;51.368;12.364;2024-02-21T14:52:32;11.50;99.90
15259;DHT22;34462;51.368;12.364;2024-02-21T14:55:01;11.50;99.90
15259;DHT22;34462;51.368;12.364;2024-02-21T14:57:30;11.60;99.90
15259;DHT22;34462;51.368;12.364;2024-02-21T14:59:58;11.50;99.90
15259;DHT22;34462;51.368;12.364;2024-02-21T15:02:29;11.40;99.90
15259;DHT22;34462;51.368;12.364;2024-02-21T15:04:58;11.40;99.90
15259;DHT22;34462;51.368;12.364;2024-02-21T15:07:26;11.40;99.90
15259;DHT22;34462;51.368;12.364;2024-02-21T15:09:54;11.40;99.90
15259;DHT22;34462;51.368;12.364;2024-02-21T15:12:24;11.30;99.90
15259;DHT22;34462;51.368;12.364;2024-02-21T15:14:52;11.40;99.90
15259;DHT22;34462;51.368;12.364;2024-02-21T15:17:20;11.30;99.90
15259;DHT22;34462;51.368;12.364;2024-02-21T15:19:50;11.30;99.90
15259;DHT22;34462;51.368;12.364;2024-02-21T15:22:21;11.40;99.90
15259;DHT22;34462;51.368;12.364;2024-02-21T15:24:50;11.30;99.90
15259;DHT22;34462;51.368;12.364;2024-02-21T15:27:19;11.30;99.90
15259;DHT22;34462;51.368;12.364;2024-02-21T15:29:49;11.40;99.90
15259;DHT22;34462;51.368;12.364;2024-02-21T15:32:17;11.30;99.90
15259;DHT22;34462;51.368;12.364;2024-02-21T15:34:46;11.30;99.90
15259;DHT22;34462;51.368;12.364;2024-02-21T15:37:17;11.30;99.90
15259;DHT22;34462;51.368;12.364;2024-02-21T15:39:46;11.20;99.90